Time;durP1;ratioP1;P1;durP2;ratioP2;P2;SDS_P1;SDS_P2;PMS_P1;PMS_P2;Temp;Humidity;BMP_temperature;BMP_pressure;BME280_temperature;BME280_humidity;BME280_pressure;Samples;Min_cycle;Max_cycle;Signal;HPM_P1;HPM_P2
2021/04/13 00:01:13;;;;;;;4.03;2.17;;;;;;;-143.98;100.00;68091.63;5087210;28;20151;-79
2021/04/13 00:03:43;;;;;;;2.83;2.20;;;;;;;-143.98;100.00;68091.63;5105027;28;20269;-80
2021/04/13 00:06:11;;;;;;;2.53;1.70;;;;;;;-143.98;100.00;68091.63;5106285;28;20082;-81
2021/04/13 00:08:38;;;;;;;4.97;2.35;;;;;;;-143.98;100.00;68091.63;5103764;28;20063;-80
2021/04/13 00:11:08;;;;;;;7.55;2.50;;;;;;;-143.98;100.00;68091.63;5084621;28;20116;-80
2021/04/13 00:13:51;;;;;;;8.13;2.05;;;;;;;-143.98;100.00;68091.63;5086074;28;20401;-80
2021/04/13 00:16:22;;;;;;;3.15;1.73;;;;;;;-143.98;100.00;68091.63;5084945;28;20094;-81
2021/04/13 00:18:50;;;;;;;8.30;1.83;;;;;;;-143.98;100.00;68091.63;5086038;28;20386;-80
2021/04/13 00:21:27;;;;;;;7.25;2.28;;;;;;;-143.98;100.00;68091.63;5102941;28;20051;-80
2021/04/13 00:23:58;;;;;;;7.10;2.17;;;;;;;-143.98;100.00;68091.63;5105089;28;20055;-80
2021/04/13 00:26:28;;;;;;;9.38;2.63;;;;;;;-143.98;100.00;68091.63;5114099;28;20075;-80
2021/04/13 00:28:56;;;;;;;5.05;2.17;;;;;;;-143.98;100.00;68091.63;5097373;28;20051;-79
2021/04/13 00:31:48;;;;;;;5.63;2.65;;;;;;;-143.98;100.00;68091.63;5107228;28;20112;-82
2021/04/13 00:34:28;;;;;;;6.57;2.15;;;;;;;-143.98;100.00;68091.63;5107439;28;20058;-81
2021/04/13 00:37:15;;;;;;;3.58;1.90;;;;;;;-143.98;100.00;68091.63;5092083;28;20066;-80
2021/04/13 00:39:41;;;;;;;6.55;2.50;;;;;;;-143.98;100.00;68091.63;5115411;28;20059;-80
2021/04/13 00:42:12;;;;;;;7.35;2.83;;;;;;;-143.98;100.00;68091.63;5105351;28;20051;-80
2021/04/13 00:44:52;;;;;;;6.80;2.83;;;;;;;-143.98;100.00;68091.63;5088072;28;20075;-81
2021/04/13 00:47:31;;;;;;;6.68;2.35;;;;;;;-143.98;100.00;68091.63;5086447;28;20063;-80
2021/04/13 00:49:59;;;;;;;7.88;2.03;;;;;;;-143.98;100.00;68091.63;5102104;28;20055;-80
2021/04/13 00:52:35;;;;;;;7.07;2.42;;;;;;;-143.98;100.00;68091.63;5085660;28;20052;-80
2021/04/13 00:55:06;;;;;;;6.75;2.42;;;;;;;-143.98;100.00;68091.63;5101544;28;20086;-80
2021/04/13 00:57:44;;;;;;;4.28;1.80;;;;;;;-143.98;100.00;68091.63;5102948;28;20055;-81
2021/04/13 01:00:39;;;;;;;9.60;2.28;;;;;;;-143.98;100.00;68091.63;5102478;28;20055;-80
2021/04/13 01:03:12;;;;;;;7.72;2.05;;;;;;;-143.98;100.00;68091.63;5099419;28;20082;-81
2021/04/13 01:05:42;;;;;;;9.40;2.75;;;;;;;-143.98;100.00;68091.63;5103266;28;20055;-81
2021/04/13 01:08:34;;;;;;;12.23;2.05;;;;;;;-143.98;100.00;68091.63;5102858;28;20243;-81
2021/04/13 01:11:18;;;;;;;6.55;2.25;;;;;;;-143.98;100.00;68091.63;5085458;28;20052;-79
2021/04/13 01:13:51;;;;;;;8.07;1.90;;;;;;;-143.98;100.00;68091.63;5101457;28;20052;-80
2021/04/13 01:16:23;;;;;;;7.32;2.00;;;;;;;-143.98;100.00;68091.63;5084736;28;20047;-79
2021/04/13 01:18:59;;;;;;;9.50;2.22;;;;;;;-143.98;100.00;68091.63;5083558;28;20276;-80
2021/04/13 01:21:56;;;;;;;5.40;1.83;;;;;;;-143.98;100.00;68091.63;5084548;28;20063;-80
2021/04/13 01:24:26;;;;;;;;;;;;;;;-143.98;100.00;68091.63;5084022;28;20079;-80
2021/04/13 01:26:53;;;;;;;5.43;1.98;;;;;;;-143.98;100.00;68091.63;5100076;28;19927;-80
2021/04/13 01:29:26;;;;;;;9.35;2.65;;;;;;;-143.98;100.00;68091.63;5101871;28;20051;-80
2021/04/13 01:31:56;;;;;;;7.18;2.58;;;;;;;-143.98;100.00;68091.63;5102142;28;20119;-81
2021/04/13 01:34:56;;;;;;;9.45;2.70;;;;;;;-143.98;100.00;68091.63;5084280;28;20066;-80
2021/04/13 01:42:42;;;;;;;7.68;2.35;;;;;;;-143.98;100.00;68091.63;5101383;28;20056;-81
2021/04/13 01:45:13;;;;;;;8.85;2.78;;;;;;;-143.98;100.00;68091.63;5101223;28;20083;-80
2021/04/13 01:47:41;;;;;;;21.15;3.00;;;;;;;-143.98;100.00;68091.63;5084258;28;20164;-82
2021/04/13 01:50:16;;;;;;;16.45;2.67;;;;;;;-143.98;100.00;68091.63;5083372;28;20055;-80
2021/04/13 01:52:46;;;;;;;6.72;2.83;;;;;;;-143.98;100.00;68091.63;5085685;28;20059;-80
2021/04/13 01:55:24;;;;;;;6.97;2.80;;;;;;;-143.98;100.00;68091.63;5101503;28;20146;-80
2021/04/13 01:57:56;;;;;;;10.85;2.85;;;;;;;-143.98;100.00;68091.63;5100235;28;20090;-81
2021/04/13 02:00:22;;;;;;;9.48;2.70;;;;;;;-143.98;100.00;68091.63;5084071;28;20218;-80
2021/04/13 02:03:14;;;;;;;10.20;3.55;;;;;;;-143.98;100.00;68091.63;5102200;28;20299;-80
2021/04/13 02:05:44;;;;;;;12.90;3.28;;;;;;;-143.98;100.00;68091.63;5112607;28;20079;-80
2021/04/13 02:08:30;;;;;;;7.53;2.58;;;;;;;-143.98;100.00;68091.63;5097740;28;20059;-80
2021/04/13 02:11:16;;;;;;;6.60;2.50;;;;;;;-143.98;100.00;68091.63;5094434;28;20051;-80
2021/04/13 02:13:53;;;;;;;6.30;2.30;;;;;;;-143.98;100.00;68091.63;5102393;28;20120;-81
2021/04/13 02:16:31;;;;;;;11.75;2.88;;;;;;;-143.98;100.00;68091.63;5102238;28;20483;-80
2021/04/13 02:19:02;;;;;;;6.95;2.28;;;;;;;-143.98;100.00;68091.63;5102118;28;20133;-80
2021/04/13 02:21:41;;;;;;;11.95;3.33;;;;;;;-143.98;100.00;68091.63;5101598;28;20101;-80
2021/04/13 02:24:07;;;;;;;4.32;2.20;;;;;;;-143.98;100.00;68091.63;5102080;28;20427;-79
2021/04/13 02:26:46;;;;;;;11.82;2.85;;;;;;;-143.98;100.00;68091.63;5101595;28;20056;-80
2021/04/13 02:29:14;;;;;;;6.47;2.92;;;;;;;-143.98;100.00;68091.63;5100520;28;20302;-80
2021/04/13 02:31:49;;;;;;;16.15;3.28;;;;;;;-143.98;100.00;68091.63;5082948;28;20120;-81
2021/04/13 02:34:23;;;;;;;12.60;3.22;;;;;;;-143.98;100.00;68091.63;5102918;28;20087;-81
2021/04/13 02:36:52;;;;;;;11.65;2.83;;;;;;;-143.98;100.00;68091.63;5102652;28;20057;-81
2021/04/13 02:39:21;;;;;;;16.15;3.53;;;;;;;-143.98;100.00;68091.63;5109206;28;20090;-81
2021/04/13 02:42:04;;;;;;;13.25;3.40;;;;;;;-143.98;100.00;68091.63;5093909;28;20048;-81
2021/04/13 02:44:32;;;;;;;8.13;3.45;;;;;;;-143.98;100.00;68091.63;5113193;28;20047;-80
2021/04/13 02:47:02;;;;;;;8.65;2.97;;;;;;;-143.98;100.00;68091.63;5130546;28;20109;-80
2021/04/13 02:49:32;;;;;;;7.35;2.58;;;;;;;-143.98;100.00;68091.63;5111133;28;20081;-80
2021/04/13 02:52:03;;;;;;;11.60;3.05;;;;;;;-143.98;100.00;68091.63;5110963;28;20063;-80
2021/04/13 02:54:39;;;;;;;12.23;2.90;;;;;;;-143.98;100.00;68091.63;5103426;28;20051;-80
2021/04/13 02:57:15;;;;;;;12.95;3.38;;;;;;;-143.98;100.00;68091.63;5084652;28;20206;-80
2021/04/13 02:59:43;;;;;;;16.35;3.05;;;;;;;-143.98;100.00;68091.63;5101507;28;20120;-80
2021/04/13 03:02:17;;;;;;;9.80;3.13;;;;;;;-143.98;100.00;68091.63;5103466;28;20051;-80
2021/04/13 03:04:46;;;;;;;11.45;3.55;;;;;;;-143.98;100.00;68091.63;5084799;28;20090;-80
2021/04/13 03:07:15;;;;;;;4.15;2.70;;;;;;;-143.98;100.00;68091.63;5084543;28;20051;-80
2021/04/13 03:09:41;;;;;;;14.40;3.13;;;;;;;-143.98;100.00;68091.63;5083856;28;20066;-80
2021/04/13 03:12:11;;;;;;;6.88;3.42;;;;;;;-143.98;100.00;68091.63;5099974;28;20056;-80
2021/04/13 03:14:48;;;;;;;12.43;3.95;;;;;;;-143.98;100.00;68091.63;5083095;28;20116;-81
2021/04/13 03:17:19;;;;;;;9.45;3.58;;;;;;;-143.98;100.00;68091.63;5082755;28;20098;-82
2021/04/13 03:19:47;;;;;;;8.98;3.15;;;;;;;-143.98;100.00;68091.63;5082359;28;20116;-80
2021/04/13 03:22:16;;;;;;;13.07;3.15;;;;;;;-143.98;100.00;68091.63;5099003;28;20408;-80
2021/04/13 03:24:46;;;;;;;12.57;2.83;;;;;;;-143.98;100.00;68091.63;5099396;28;20067;-80
2021/04/13 03:27:19;;;;;;;10.30;3.75;;;;;;;-143.98;100.00;68091.63;5099051;28;20074;-81
2021/04/13 03:30:06;;;;;;;11.93;3.78;;;;;;;-143.98;100.00;68091.63;5100090;28;20070;-81
2021/04/13 03:32:40;;;;;;;12.88;3.25;;;;;;;-143.98;100.00;68091.63;5082735;28;20079;-80
2021/04/13 03:35:07;;;;;;;11.02;3.33;;;;;;;-143.98;100.00;68091.63;5084120;28;20191;-82
2021/04/13 03:37:35;;;;;;;10.85;3.65;;;;;;;-143.98;100.00;68091.63;5083356;28;20051;-81
2021/04/13 03:40:05;;;;;;;13.93;3.42;;;;;;;-143.98;100.00;68091.63;5083286;28;20052;-81
2021/04/13 03:42:32;;;;;;;9.43;4.00;;;;;;;-143.98;100.00;68091.63;5098443;28;20098;-81
2021/04/13 03:44:59;;;;;;;10.60;3.35;;;;;;;-143.98;100.00;68091.63;5099458;28;20430;-80
2021/04/13 03:47:32;;;;;;;7.72;2.83;;;;;;;-143.98;100.00;68091.63;5080821;28;20055;-81
2021/04/13 03:50:00;;;;;;;15.98;3.60;;;;;;;-143.98;100.00;68091.63;5081813;28;20155;-82
2021/04/13 03:52:29;;;;;;;13.90;4.55;;;;;;;-143.98;100.00;68091.63;5081397;28;20066;-82
2021/04/13 03:54:56;;;;;;;12.23;2.75;;;;;;;-143.98;100.00;68091.63;5090724;28;20044;-82
2021/04/13 03:57:36;;;;;;;12.40;3.42;;;;;;;-143.98;100.00;68091.63;5111217;28;20231;-82
2021/04/13 04:00:08;;;;;;;7.97;3.88;;;;;;;-143.98;100.00;68091.63;5104484;28;20052;-79
2021/04/13 04:02:36;;;;;;;19.38;3.90;;;;;;;-143.98;100.00;68091.63;5079711;28;20047;-81
2021/04/13 04:05:10;;;;;;;8.77;2.70;;;;;;;-143.98;100.00;68091.63;5099049;28;20055;-80
2021/04/13 04:07:40;;;;;;;7.22;2.72;;;;;;;-143.98;100.00;68091.63;5089892;28;20138;-81
2021/04/13 04:10:43;;;;;;;14.35;2.90;;;;;;;-143.98;100.00;68091.63;5090285;28;20071;-81
2021/04/13 04:13:25;;;;;;;22.10;3.53;;;;;;;-143.98;100.00;68091.63;5121584;28;20055;-80
2021/04/13 04:16:14;;;;;;;9.52;3.17;;;;;;;-143.98;100.00;68091.63;5102572;28;20059;-81
2021/04/13 04:18:45;;;;;;;17.38;3.72;;;;;;;-143.98;100.00;68091.63;5120349;28;20051;-81
2021/04/13 04:22:03;;;;;;;10.60;3.13;;;;;;;-143.98;100.00;68091.63;5101977;28;20054;-81
2021/04/13 04:24:34;;;;;;;7.93;2.80;;;;;;;-143.98;100.00;68091.63;5020672;28;20416;-80
2021/04/13 04:27:32;;;;;;;18.13;3.38;;;;;;;-143.98;100.00;68091.63;5021292;28;20238;-81
2021/04/13 04:30:09;;;;;;;9.10;3.15;;;;;;;-143.98;100.00;68091.63;5078758;28;20055;-81
2021/04/13 04:32:41;;;;;;;16.77;3.85;;;;;;;-143.98;100.00;68091.63;5075063;28;20502;-80
2021/04/13 04:35:11;;;;;;;15.82;3.70;;;;;;;-143.98;100.00;68091.63;5104572;28;20056;-80
2021/04/13 04:37:46;;;;;;;27.70;4.63;;;;;;;-143.98;100.00;68091.63;5065833;28;20172;-81
2021/04/13 04:40:28;;;;;;;8.00;3.40;;;;;;;-143.98;100.00;68091.63;5081433;28;20071;-80
2021/04/13 04:43:03;;;;;;;12.15;3.58;;;;;;;-143.98;100.00;68091.63;5086108;28;20056;-80
2021/04/13 04:45:45;;;;;;;9.95;3.63;;;;;;;-143.98;100.00;68091.63;5091653;28;20059;-80
2021/04/13 04:48:22;;;;;;;12.95;3.47;;;;;;;-143.98;100.00;68091.63;5093532;28;20150;-80
2021/04/13 04:50:53;;;;;;;13.90;3.70;;;;;;;-143.98;100.00;68091.63;5107234;28;20060;-80
2021/04/13 04:53:23;;;;;;;13.95;3.88;;;;;;;-143.98;100.00;68091.63;5088439;28;20066;-80
2021/04/13 04:56:00;;;;;;;11.18;3.95;;;;;;;-143.98;100.00;68091.63;5065436;28;20083;-81
2021/04/13 04:58:27;;;;;;;9.88;3.33;;;;;;;-143.98;100.00;68091.63;5078758;28;20347;-80
2021/04/13 05:00:54;;;;;;;11.85;3.17;;;;;;;-143.98;100.00;68091.63;5059852;28;20068;-80
2021/04/13 05:03:22;;;;;;;24.23;4.43;;;;;;;-143.98;100.00;68091.63;5090958;28;20078;-80
2021/04/13 05:05:49;;;;;;;11.65;3.55;;;;;;;-143.98;100.00;68091.63;5075544;28;20063;-80
2021/04/13 05:08:19;;;;;;;10.30;3.80;;;;;;;-143.98;100.00;68091.63;5075783;28;20071;-80
2021/04/13 05:10:47;;;;;;;9.57;3.78;;;;;;;-143.98;100.00;68091.63;5092822;28;20242;-81
2021/04/13 05:13:20;;;;;;;13.38;3.72;;;;;;;-143.98;100.00;68091.63;5059344;28;20323;-81
2021/04/13 05:15:46;;;;;;;11.60;4.78;;;;;;;-143.98;100.00;68091.63;5074799;28;20534;-81
2021/04/13 05:18:16;;;;;;;11.90;3.20;;;;;;;-143.98;100.00;68091.63;5075436;28;20129;-81
2021/04/13 05:20:43;;;;;;;15.70;3.40;;;;;;;-143.98;100.00;68091.63;5075153;28;20052;-80
2021/04/13 05:23:21;;;;;;;13.57;3.13;;;;;;;-143.98;100.00;68091.63;5076566;28;20060;-81
2021/04/13 05:25:51;;;;;;;12.05;3.20;;;;;;;-143.98;100.00;68091.63;5079031;28;20058;-81
2021/04/13 05:28:19;;;;;;;9.15;3.00;;;;;;;-143.98;100.00;68091.63;5081922;28;20196;-80
2021/04/13 05:31:00;;;;;;;14.57;4.40;;;;;;;-143.98;100.00;68091.63;5088642;28;20107;-82
2021/04/13 05:33:29;;;;;;;9.25;2.20;;;;;;;-143.98;100.00;68091.63;5114393;27;20055;-82
2021/04/13 05:36:04;;;;;;;14.60;3.00;;;;;;;-143.98;100.00;68091.63;5128831;28;20093;-80
2021/04/13 05:38:37;;;;;;;8.90;2.47;;;;;;;-143.98;100.00;68091.63;5094745;27;20209;-80
2021/04/13 05:41:05;;;;;;;9.02;2.63;;;;;;;-143.98;100.00;68091.63;5091296;28;20123;-80
2021/04/13 05:43:52;;;;;;;9.32;2.40;;;;;;;-143.98;100.00;68091.63;5101193;28;20153;-82
2021/04/13 05:46:25;;;;;;;7.50;1.98;;;;;;;-143.98;100.00;68091.63;5106481;28;20067;-80
2021/04/13 05:48:59;;;;;;;3.42;1.60;;;;;;;-143.98;100.00;68091.63;5092857;27;20048;-80
2021/04/13 05:51:30;;;;;;;;;;;;;;;-143.98;100.00;68091.63;5099385;28;20309;-80
2021/04/13 05:53:57;;;;;;;6.55;1.90;;;;;;;-143.98;100.00;68091.63;5101319;28;19963;-80
2021/04/13 05:56:43;;;;;;;13.65;2.33;;;;;;;-143.98;100.00;68091.63;5106473;28;20043;-81
2021/04/13 05:59:13;;;;;;;5.72;1.70;;;;;;;-143.98;100.00;68091.63;5090361;28;20130;-81
2021/04/13 06:01:50;;;;;;;10.83;2.30;;;;;;;-143.98;100.00;68091.63;5091202;28;20115;-82
2021/04/13 06:04:17;;;;;;;6.20;1.67;;;;;;;-143.98;100.00;68091.63;5123573;28;20050;-81
2021/04/13 06:06:50;;;;;;;11.93;1.95;;;;;;;-143.98;100.00;68091.63;5082842;28;20196;-82
2021/04/13 06:09:16;;;;;;;7.15;1.60;;;;;;;-143.98;100.00;68091.63;5098272;28;20067;-81
2021/04/13 06:11:43;;;;;;;5.35;1.40;;;;;;;-143.98;100.00;68091.63;5097563;28;20056;-81
2021/04/13 06:14:14;;;;;;;5.10;1.70;;;;;;;-143.98;100.00;68091.63;5082020;28;20067;-81
2021/04/13 06:16:43;;;;;;;6.25;1.70;;;;;;;-143.98;100.00;68091.63;5114918;28;20287;-81
2021/04/13 06:19:17;;;;;;;6.25;1.55;;;;;;;-143.98;100.00;68091.63;5099011;28;20055;-81
2021/04/13 06:21:48;;;;;;;8.55;1.55;;;;;;;-143.98;100.00;68091.63;5101126;28;20312;-82
2021/04/13 06:24:14;;;;;;;5.88;1.48;;;;;;;-143.98;100.00;68091.63;5121480;28;20073;-81
2021/04/13 06:26:41;;;;;;;7.25;1.52;;;;;;;-143.98;100.00;68091.63;5097923;28;20055;-80
2021/04/13 06:29:12;;;;;;;6.95;1.65;;;;;;;-143.98;100.00;68091.63;5114713;28;20301;-82
2021/04/13 06:31:38;;;;;;;5.53;1.77;;;;;;;-143.98;100.00;68091.63;5095871;28;20137;-81
2021/04/13 06:34:06;;;;;;;5.63;1.38;;;;;;;-143.98;100.00;68091.63;5095932;28;20052;-82
2021/04/13 06:36:38;;;;;;;5.47;1.38;;;;;;;-143.98;100.00;68091.63;5112520;28;20051;-81
2021/04/13 06:39:08;;;;;;;7.43;1.50;;;;;;;-143.98;100.00;68091.63;5113787;28;20170;-81
2021/04/13 06:41:53;;;;;;;4.95;1.35;;;;;;;-143.98;100.00;68091.63;5098631;28;20121;-82
2021/04/13 06:44:49;;;;;;;6.85;1.30;;;;;;;-143.98;100.00;68091.63;5116237;28;20055;-81
2021/04/13 06:47:22;;;;;;;5.50;1.27;;;;;;;-143.98;100.00;68091.63;5096932;28;20048;-82
2021/04/13 06:50:27;;;;;;;10.05;1.15;;;;;;;-143.98;100.00;68091.63;5081478;28;20315;-80
2021/04/13 06:53:02;;;;;;;8.23;1.48;;;;;;;-143.98;100.00;68091.63;5096174;28;20070;-81
2021/04/13 06:55:41;;;;;;;9.35;1.60;;;;;;;-143.98;100.00;68091.63;5080741;28;20055;-83
2021/04/13 06:58:07;;;;;;;12.77;1.80;;;;;;;-143.98;100.00;68091.63;5112012;28;20048;-81
2021/04/13 07:00:57;;;;;;;7.65;1.30;;;;;;;-143.98;100.00;68091.63;5095776;28;20224;-81
2021/04/13 07:03:33;;;;;;;11.18;2.20;;;;;;;-143.98;100.00;68091.63;5095247;28;20084;-82
2021/04/13 07:06:05;;;;;;;7.55;1.40;;;;;;;-143.98;100.00;68091.63;5094381;28;20062;-83
2021/04/13 07:08:39;;;;;;;14.10;1.70;;;;;;;-143.98;100.00;68091.63;5094147;28;20060;-81
2021/04/13 07:11:31;;;;;;;11.93;1.90;;;;;;;-143.98;100.00;68091.63;5077561;28;20048;-82
2021/04/13 07:14:05;;;;;;;7.03;1.35;;;;;;;-143.98;100.00;68091.63;5111008;28;20051;-82
2021/04/13 07:16:43;;;;;;;9.27;1.98;;;;;;;-143.98;100.00;68091.63;5082887;28;20059;-81
2021/04/13 07:19:34;;;;;;;14.87;1.97;;;;;;;-143.98;100.00;68091.63;5097676;28;20062;-82
2021/04/13 07:22:08;;;;;;;11.95;1.45;;;;;;;-143.98;100.00;68091.63;5096007;28;20291;-83
2021/04/13 07:24:50;;;;;;;9.70;1.77;;;;;;;-143.98;100.00;68091.63;5099493;28;20055;-82
2021/04/13 07:27:36;;;;;;;10.43;1.70;;;;;;;-143.98;100.00;68091.63;5122835;28;20055;-83
2021/04/13 07:30:06;;;;;;;8.55;2.22;;;;;;;-143.98;100.00;68091.63;5121303;28;20132;-83
2021/04/13 07:32:37;;;;;;;5.90;1.85;;;;;;;-143.98;100.00;68091.63;5080052;28;20147;-82
2021/04/13 07:35:13;;;;;;;8.15;1.73;;;;;;;-143.98;100.00;68091.63;5078850;28;20052;-81
2021/04/13 07:37:48;;;;;;;10.32;1.63;;;;;;;-143.98;100.00;68091.63;5088132;28;20248;-81
2021/04/13 07:40:16;;;;;;;8.65;1.60;;;;;;;-143.98;100.00;68091.63;5104819;28;20051;-82
2021/04/13 07:43:21;;;;;;;10.88;1.65;;;;;;;-143.98;100.00;68091.63;5084153;28;20142;-82
2021/04/13 07:46:24;;;;;;;9.60;1.67;;;;;;;-143.98;100.00;68091.63;5079610;28;20134;-82
2021/04/13 07:49:06;;;;;;;10.50;1.85;;;;;;;-143.98;100.00;68091.63;5116323;28;20083;-81
2021/04/13 07:51:45;;;;;;;10.52;2.00;;;;;;;-143.98;100.00;68091.63;5114602;28;20132;-83
2021/04/13 07:54:44;;;;;;;8.55;1.55;;;;;;;-143.98;100.00;68091.63;5114954;28;20055;-82
2021/04/13 07:57:22;;;;;;;12.23;1.80;;;;;;;-143.98;100.00;68091.63;5115811;28;20059;-82
2021/04/13 07:59:58;;;;;;;9.05;1.45;;;;;;;-143.98;100.00;68091.63;5086902;28;20232;-82
2021/04/13 08:02:39;;;;;;;7.05;1.40;;;;;;;-143.98;100.00;68091.63;5086575;28;20138;-83
2021/04/13 08:05:08;;;;;;;8.88;1.95;;;;;;;-143.98;100.00;68091.63;5117224;28;20140;-82
2021/04/13 08:07:36;;;;;;;7.43;1.60;;;;;;;-143.98;100.00;68091.63;5099385;28;20124;-82
2021/04/13 08:10:28;;;;;;;6.75;1.45;;;;;;;-143.98;100.00;68091.63;5118311;28;20519;-82
2021/04/13 08:13:14;;;;;;;6.68;1.80;;;;;;;-143.98;100.00;68091.63;5095628;28;20075;-82
2021/04/13 08:15:46;;;;;;;5.88;1.30;;;;;;;-143.98;100.00;68091.63;5098313;28;20161;-82
2021/04/13 08:18:32;;;;;;;6.72;1.30;;;;;;;-143.98;100.00;68091.63;5084042;28;20055;-82
2021/04/13 08:21:15;;;;;;;3.50;1.88;;;;;;;-143.98;100.00;68091.63;5085676;28;20166;-81
2021/04/13 08:23:53;;;;;;;4.03;0.70;;;;;;;-143.98;100.00;68091.63;5100886;28;20562;-83
2021/04/13 08:26:29;;;;;;;3.08;0.85;;;;;;;-143.98;100.00;68091.63;5080365;28;20074;-82
2021/04/13 08:29:45;;;;;;;4.63;1.00;;;;;;;-143.98;100.00;68091.63;5098677;28;20309;-82
2021/04/13 08:36:07;;;;;;;4.57;1.17;;;;;;;-143.98;100.00;68091.63;5102599;28;20055;-82
2021/04/13 08:39:08;;;;;;;6.32;1.02;;;;;;;-143.98;100.00;68091.63;5064659;28;20058;-82
2021/04/13 08:41:41;;;;;;;6.60;1.00;;;;;;;-143.98;100.00;68091.63;5083925;28;20058;-82
2021/04/13 08:44:40;;;;;;;6.45;1.10;;;;;;;-143.98;100.00;68091.63;5087858;28;20145;-83
2021/04/13 08:47:15;;;;;;;4.75;0.90;;;;;;;-143.98;100.00;68091.63;5109173;28;20227;-83
2021/04/13 08:49:57;;;;;;;5.65;1.10;;;;;;;-143.98;100.00;68091.63;5106871;28;20051;-83
2021/04/13 08:52:44;;;;;;;9.60;1.40;;;;;;;-143.98;100.00;68091.63;5081965;28;20113;-83
2021/04/13 08:55:22;;;;;;;5.90;1.23;;;;;;;-143.98;100.00;68091.63;5099906;28;20051;-83
2021/04/13 08:58:01;;;;;;;9.60;1.50;;;;;;;-143.98;100.00;68091.63;5081995;28;20047;-82
2021/04/13 09:01:24;;;;;;;10.85;1.45;;;;;;;-143.98;100.00;68091.63;5123053;28;20069;-82
2021/04/13 09:03:53;;;;;;;9.07;1.70;;;;;;;-143.98;100.00;68091.63;5130609;27;20083;-83
2021/04/13 09:06:37;;;;;;;10.30;1.58;;;;;;;-143.98;100.00;68091.63;5112026;28;20103;-83
2021/04/13 09:09:29;;;;;;;5.07;1.33;;;;;;;-143.98;100.00;68091.63;5096538;28;20086;-83
2021/04/13 09:12:34;;;;;;;9.73;1.80;;;;;;;-143.98;100.00;68091.63;5111131;28;20059;-85
2021/04/13 09:15:00;;;;;;;9.45;2.35;;;;;;;-143.98;100.00;68091.63;5084110;28;20047;-83
2021/04/13 09:18:08;;;;;;;9.35;1.80;;;;;;;-143.98;100.00;68091.63;5119401;28;20055;-82
2021/04/13 09:21:05;;;;;;;13.40;1.63;;;;;;;-143.98;100.00;68091.63;5102090;28;20108;-82
2021/04/13 09:23:49;;;;;;;8.80;1.40;;;;;;;-143.98;100.00;68091.63;5102401;28;20077;-82
2021/04/13 09:26:57;;;;;;;13.60;1.88;;;;;;;-143.98;100.00;68091.63;5126992;28;20117;-82
2021/04/13 09:29:42;;;;;;;;;;;;;;;-143.98;100.00;68091.63;5128422;28;20222;-83
2021/04/13 09:32:24;;;;;;;11.25;1.48;;;;;;;-143.98;100.00;68091.63;5106762;28;19968;-84
2021/04/13 09:35:00;;;;;;;7.22;0.90;;;;;;;-143.98;100.00;68091.63;5100422;28;20047;-82
2021/04/13 09:38:07;;;;;;;2.73;0.87;;;;;;;-143.98;100.00;68091.63;5099452;28;20082;-82
2021/04/13 09:40:39;;;;;;;5.72;0.63;;;;;;;-143.98;100.00;68091.63;5115874;28;20394;-83
2021/04/13 09:43:10;;;;;;;7.25;1.00;;;;;;;-143.98;100.00;68091.63;5117116;28;20047;-83
2021/04/13 09:45:49;;;;;;;4.40;0.70;;;;;;;-143.98;100.00;68091.63;5084175;28;20169;-83
2021/04/13 09:48:37;;;;;;;5.32;0.70;;;;;;;-143.98;100.00;68091.63;5117628;28;20086;-82
2021/04/13 09:51:09;;;;;;;4.15;0.80;;;;;;;-143.98;100.00;68091.63;5104507;28;20450;-83
2021/04/13 09:54:18;;;;;;;8.85;1.20;;;;;;;-143.98;100.00;68091.63;5105288;28;20052;-84
2021/04/13 09:57:38;;;;;;;24.23;1.50;;;;;;;-143.98;100.00;68091.63;5099419;28;20052;-85
2021/04/13 10:00:37;;;;;;;5.88;1.17;;;;;;;-143.98;100.00;68091.63;5056252;28;20049;-84
2021/04/13 10:03:41;;;;;;;5.80;1.00;;;;;;;-143.98;100.00;68091.63;5042383;28;20343;-85
2021/04/13 10:06:13;;;;;;;15.73;2.38;;;;;;;-143.98;100.00;68091.63;5115108;28;20058;-84
2021/04/13 10:08:48;;;;;;;12.85;3.15;;;;;;;-143.98;100.00;68091.63;5082410;28;20054;-84
2021/04/13 10:11:52;;;;;;;12.10;3.80;;;;;;;-143.98;100.00;68091.63;5098168;28;20063;-83
2021/04/13 10:14:34;;;;;;;14.65;4.32;;;;;;;-143.98;100.00;68091.63;5112819;28;20054;-82
2021/04/13 10:17:00;;;;;;;11.77;1.40;;;;;;;-143.98;100.00;68091.63;5114154;28;20055;-81
2021/04/13 10:19:56;;;;;;;8.55;1.35;;;;;;;-143.98;100.00;68091.63;5093190;28;20056;-80
2021/04/13 10:23:10;;;;;;;5.47;1.17;;;;;;;-143.98;100.00;68091.63;5095830;28;20176;-81
2021/04/13 10:25:54;;;;;;;10.13;1.60;;;;;;;-143.98;100.00;68091.63;5035479;28;20061;-81
2021/04/13 10:28:43;;;;;;;8.68;1.48;;;;;;;-143.98;100.00;68091.63;5013700;28;20085;-81
2021/04/13 10:31:34;;;;;;;9.07;2.75;;;;;;;-143.98;100.00;68091.63;5077851;28;20051;-81
2021/04/13 10:34:51;;;;;;;7.43;1.80;;;;;;;-143.98;100.00;68091.63;5100805;28;20052;-81
2021/04/13 10:37:32;;;;;;;7.22;1.45;;;;;;;-143.98;100.00;68091.63;5083200;28;20080;-81
2021/04/13 10:40:38;;;;;;;8.18;1.80;;;;;;;-143.98;100.00;68091.63;5073316;28;20160;-82
2021/04/13 10:43:15;;;;;;;5.18;1.40;;;;;;;-143.98;100.00;68091.63;5072943;28;20378;-80
2021/04/13 10:46:02;;;;;;;6.10;1.42;;;;;;;-143.98;100.00;68091.63;5070713;28;20048;-81
2021/04/13 10:48:55;;;;;;;5.40;1.25;;;;;;;-143.98;100.00;68091.63;5072429;28;20059;-81
2021/04/13 10:51:54;;;;;;;6.40;1.30;;;;;;;-143.98;100.00;68091.63;5076101;28;20063;-82
2021/04/13 10:54:29;;;;;;;6.10;1.20;;;;;;;-143.98;100.00;68091.63;5107758;28;20044;-83
2021/04/13 10:57:30;;;;;;;9.70;1.73;;;;;;;-143.98;100.00;68091.63;5090565;28;20100;-83
2021/04/13 11:00:42;;;;;;;5.95;1.25;;;;;;;-143.98;100.00;68091.63;5099470;28;20448;-84
2021/04/13 11:03:39;;;;;;;6.22;1.02;;;;;;;-143.98;100.00;68091.63;5088971;28;20052;-81
2021/04/13 11:06:34;;;;;;;7.00;1.42;;;;;;;-143.98;100.00;68091.63;5091345;28;20170;-83
2021/04/13 11:09:08;;;;;;;7.03;0.82;;;;;;;-143.98;100.00;68091.63;5091789;28;20040;-82
2021/04/13 11:12:12;;;;;;;4.72;0.80;;;;;;;-143.98;100.00;68091.63;5088695;28;20111;-82
2021/04/13 11:15:07;;;;;;;5.82;0.70;;;;;;;-143.98;100.00;68091.63;5100725;28;20345;-82
2021/04/13 11:18:00;;;;;;;5.72;0.80;;;;;;;-143.98;100.00;68091.63;5082343;28;20086;-83
2021/04/13 11:20:48;;;;;;;5.25;0.80;;;;;;;-143.98;100.00;68091.63;5085134;28;20095;-82
2021/04/13 11:23:32;;;;;;;3.55;0.77;;;;;;;-143.98;100.00;68091.63;5088894;28;20056;-83
2021/04/13 11:26:23;;;;;;;2.72;0.82;;;;;;;-143.98;100.00;68091.63;5090889;28;20075;-84
2021/04/13 11:29:09;;;;;;;5.82;1.13;;;;;;;-143.98;100.00;68091.63;5130340;28;20063;-82
2021/04/13 11:32:13;;;;;;;3.63;0.80;;;;;;;-143.98;100.00;68091.63;5114060;28;20112;-83
2021/04/13 11:35:26;;;;;;;7.22;1.20;;;;;;;-143.98;100.00;68091.63;5110385;28;20052;-82
2021/04/13 11:38:14;;;;;;;6.30;0.90;;;;;;;-143.98;100.00;68091.63;5110420;28;20195;-82
2021/04/13 11:41:15;;;;;;;3.00;0.70;;;;;;;-143.98;100.00;68091.63;5097371;28;20056;-83
2021/04/13 11:43:49;;;;;;;3.70;0.98;;;;;;;-143.98;100.00;68091.63;5132843;28;20267;-83
2021/04/13 11:46:54;;;;;;;4.50;0.90;;;;;;;-143.98;100.00;68091.63;5117378;28;20262;-83
2021/04/13 11:49:47;;;;;;;4.55;0.90;;;;;;;-143.98;100.00;68091.63;5110817;28;20135;-83
2021/04/13 11:52:39;;;;;;;6.45;2.20;;;;;;;-143.98;100.00;68091.63;5096861;28;20055;-81
2021/04/13 11:55:30;;;;;;;3.20;0.90;;;;;;;-143.98;100.00;68091.63;5113985;28;20051;-83
2021/04/13 11:58:14;;;;;;;4.63;1.10;;;;;;;-143.98;100.00;68091.63;5125391;28;20208;-83
2021/04/13 12:00:41;;;;;;;5.90;1.35;;;;;;;-143.98;100.00;68091.63;5123952;28;20067;-82
2021/04/13 12:03:21;;;;;;;4.97;1.05;;;;;;;-143.98;100.00;68091.63;5090304;28;20059;-83
2021/04/13 12:05:59;;;;;;;13.25;1.50;;;;;;;-143.98;100.00;68091.63;5123905;28;20147;-83
2021/04/13 12:08:28;;;;;;;6.47;1.67;;;;;;;-143.98;100.00;68091.63;5123849;28;20146;-82
2021/04/13 12:11:02;;;;;;;10.10;2.00;;;;;;;-143.98;100.00;68091.63;5128482;28;20115;-82